createdAt,value
2018-09-21T00:00:15.582Z,21.50
2018-09-21T00:02:44.108Z,21.50
2018-09-21T00:05:12.565Z,21.60
2018-09-21T00:07:41.015Z,21.50
2018-09-21T00:10:09.482Z,21.60
2018-09-21T00:12:37.948Z,21.60
2018-09-21T00:15:06.435Z,21.60
2018-09-21T00:17:34.910Z,21.70
2018-09-21T00:20:03.408Z,21.70
2018-09-21T00:22:31.830Z,21.60
2018-09-21T00:25:00.277Z,21.60
2018-09-21T00:27:28.754Z,21.50
2018-09-21T00:29:57.819Z,21.50
2018-09-21T00:32:26.266Z,21.50
2018-09-21T00:34:54.813Z,21.50
2018-09-21T00:37:23.301Z,21.60
2018-09-21T00:39:51.831Z,21.50
2018-09-21T00:42:20.374Z,21.50
2018-09-21T00:44:48.828Z,21.50
2018-09-21T00:47:17.261Z,21.40
2018-09-21T00:49:45.773Z,21.40
2018-09-21T00:52:14.236Z,21.40
2018-09-21T00:54:43.216Z,21.30
2018-09-21T00:57:11.669Z,21.30
2018-09-21T00:59:40.137Z,21.20
2018-09-21T01:02:08.603Z,21.10
2018-09-21T01:04:44.307Z,21.20
2018-09-21T01:07:14.503Z,21.10
2018-09-21T01:09:43.469Z,21.10
2018-09-21T01:12:11.901Z,21.20
2018-09-21T01:14:40.641Z,21.20
2018-09-21T01:17:09.077Z,21.20
2018-09-21T01:19:37.553Z,21.20
2018-09-21T01:22:06.110Z,21.10
2018-09-21T01:24:34.569Z,21.10
2018-09-21T01:27:03.027Z,21.20
2018-09-21T01:29:34.449Z,21.30
2018-09-21T01:32:02.873Z,21.20
2018-09-21T01:34:31.402Z,21.20
2018-09-21T01:36:59.838Z,21.20
2018-09-21T01:39:28.265Z,21.30
2018-09-21T01:41:56.714Z,21.30
2018-09-21T01:44:25.150Z,21.30
2018-09-21T01:46:53.601Z,21.30
2018-09-21T01:49:22.038Z,21.30
2018-09-21T01:51:50.481Z,21.30
2018-09-21T01:54:18.946Z,21.40
2018-09-21T01:56:47.417Z,21.30
2018-09-21T01:59:15.874Z,21.20
2018-09-21T02:01:44.412Z,21.20
2018-09-21T02:04:12.842Z,21.10
2018-09-21T02:06:41.310Z,21.10
2018-09-21T02:09:10.583Z,21.10
2018-09-21T02:11:39.009Z,21.10
2018-09-21T02:14:07.637Z,21.20
2018-09-21T02:16:36.119Z,21.20
2018-09-21T02:19:04.591Z,21.10
2018-09-21T02:21:33.025Z,21.20
2018-09-21T02:24:01.498Z,21.10
2018-09-21T02:26:29.994Z,21.10
2018-09-21T02:28:58.445Z,21.00
2018-09-21T02:31:27.047Z,21.00
2018-09-21T02:33:55.572Z,21.00
2018-09-21T02:36:24.718Z,21.00
2018-09-21T02:38:53.317Z,20.90
2018-09-21T02:41:21.878Z,20.90
2018-09-21T02:43:50.333Z,21.00
2018-09-21T02:46:18.762Z,20.90
2018-09-21T02:48:54.054Z,21.00
2018-09-21T02:51:22.485Z,21.00
2018-09-21T02:53:50.952Z,20.90
2018-09-21T02:56:20.321Z,20.90
2018-09-21T02:58:49.038Z,20.90
2018-09-21T03:01:17.763Z,20.90
2018-09-21T03:03:46.206Z,21.00
2018-09-21T03:06:14.835Z,20.90
2018-09-21T03:08:43.589Z,20.90
2018-09-21T03:11:12.966Z,20.90
2018-09-21T03:13:41.675Z,20.70
2018-09-21T03:16:10.121Z,20.70
2018-09-21T03:18:38.564Z,20.70
2018-09-21T03:21:07.034Z,20.70
2018-09-21T03:23:35.505Z,20.80
2018-09-21T03:26:03.950Z,20.80
2018-09-21T03:28:32.392Z,20.90
2018-09-21T03:31:00.824Z,20.90
2018-09-21T03:33:29.257Z,20.90
2018-09-21T03:35:57.724Z,21.00
2018-09-21T03:38:26.190Z,21.00
2018-09-21T03:40:54.665Z,21.00
2018-09-21T03:43:23.156Z,21.00
2018-09-21T03:45:51.751Z,21.00
2018-09-21T03:48:20.193Z,21.00
2018-09-21T03:50:48.636Z,20.90
2018-09-21T03:53:18.128Z,21.00
2018-09-21T03:55:46.818Z,20.80
2018-09-21T03:58:15.269Z,20.90
2018-09-21T04:00:43.714Z,20.90
2018-09-21T04:03:12.178Z,20.80
2018-09-21T04:05:40.653Z,20.80
2018-09-21T04:08:09.143Z,20.70
2018-09-21T04:10:37.616Z,20.60
2018-09-21T04:13:06.117Z,20.60
2018-09-21T04:15:34.634Z,20.60
2018-09-21T04:18:03.111Z,20.60
2018-09-21T04:20:31.569Z,20.50
2018-09-21T04:23:02.654Z,20.40
2018-09-21T04:25:31.805Z,20.50
2018-09-21T04:28:00.253Z,20.40
2018-09-21T04:30:29.144Z,20.40
2018-09-21T04:32:59.183Z,20.30
2018-09-21T04:35:27.631Z,20.30
2018-09-21T04:37:56.081Z,20.40
2018-09-21T04:40:24.558Z,20.40
2018-09-21T04:42:53.009Z,20.30
2018-09-21T04:45:21.442Z,20.30
2018-09-21T04:47:49.888Z,20.30
2018-09-21T04:50:18.360Z,20.30
2018-09-21T04:52:46.831Z,20.20
2018-09-21T04:55:15.270Z,20.20
2018-09-21T04:57:43.702Z,20.20
2018-09-21T05:00:12.497Z,20.20
2018-09-21T05:02:40.918Z,20.30
2018-09-21T05:05:09.357Z,20.30
2018-09-21T05:07:37.809Z,20.30
2018-09-21T05:10:06.257Z,20.40
2018-09-21T05:12:34.706Z,20.40
2018-09-21T05:15:03.166Z,20.30
2018-09-21T05:17:31.670Z,20.30
2018-09-21T05:20:00.094Z,20.40
2018-09-21T05:22:28.579Z,20.40
2018-09-21T05:24:57.016Z,20.20
2018-09-21T05:27:25.546Z,20.30
2018-09-21T05:29:53.989Z,20.40
2018-09-21T05:32:22.425Z,20.40
2018-09-21T05:34:50.919Z,20.50
2018-09-21T05:37:19.353Z,20.60
2018-09-21T05:39:47.786Z,20.70
2018-09-21T05:42:16.249Z,20.70
2018-09-21T05:44:44.738Z,20.80
2018-09-21T05:47:13.228Z,20.80
2018-09-21T05:49:41.652Z,20.80
2018-09-21T05:52:10.645Z,21.00
2018-09-21T05:54:39.708Z,21.10
2018-09-21T05:57:08.149Z,21.20
2018-09-21T05:59:36.676Z,21.20
2018-09-21T06:02:05.225Z,21.20
2018-09-21T06:04:33.618Z,21.20
2018-09-21T06:07:02.113Z,21.20
2018-09-21T06:09:30.637Z,21.30
2018-09-21T06:11:59.061Z,21.30
2018-09-21T06:14:27.508Z,21.20
2018-09-21T06:16:55.977Z,21.10
2018-09-21T06:19:24.444Z,21.10
2018-09-21T06:21:52.922Z,21.10
2018-09-21T06:24:21.407Z,21.10
2018-09-21T06:26:49.878Z,21.00
2018-09-21T06:29:18.326Z,21.00
2018-09-21T06:31:46.839Z,20.90
2018-09-21T06:34:15.285Z,20.90
2018-09-21T06:36:43.763Z,21.00
2018-09-21T06:39:12.431Z,20.90
2018-09-21T06:41:40.885Z,20.90
2018-09-21T06:44:09.735Z,20.90
2018-09-21T06:46:38.181Z,20.90
2018-09-21T06:49:06.845Z,20.90
2018-09-21T06:51:35.267Z,21.00
2018-09-21T06:54:03.730Z,21.00
2018-09-21T06:56:32.186Z,21.00
2018-09-21T06:59:00.636Z,21.00
2018-09-21T07:01:29.165Z,20.90
2018-09-21T07:03:57.566Z,20.90
2018-09-21T07:06:25.989Z,20.80
2018-09-21T07:08:54.446Z,20.80
2018-09-21T07:11:22.897Z,20.80
2018-09-21T07:13:51.494Z,20.80
2018-09-21T07:16:19.917Z,20.70
2018-09-21T07:18:48.381Z,20.60
2018-09-21T07:21:16.825Z,20.60
2018-09-21T07:23:45.333Z,20.50
2018-09-21T07:26:13.829Z,20.50
2018-09-21T07:28:42.306Z,20.50
2018-09-21T07:31:10.873Z,20.60
2018-09-21T07:33:39.922Z,20.70
2018-09-21T07:36:08.540Z,20.80
2018-09-21T07:38:37.046Z,20.90
2018-09-21T07:41:05.675Z,21.00
2018-09-21T07:43:34.109Z,20.90
2018-09-21T07:46:02.544Z,21.00
2018-09-21T07:48:31.306Z,21.00
2018-09-21T07:50:59.790Z,21.30
2018-09-21T07:53:28.378Z,21.10
2018-09-21T07:55:56.816Z,21.10
2018-09-21T07:58:25.245Z,20.80
2018-09-21T08:00:53.677Z,20.40
2018-09-21T08:03:22.133Z,19.60
2018-09-21T08:05:50.558Z,19.10
2018-09-21T08:08:18.995Z,18.80
2018-09-21T08:10:47.587Z,18.30
2018-09-21T08:13:16.043Z,18.00
2018-09-21T08:15:44.648Z,17.60
2018-09-21T08:18:13.858Z,17.30
2018-09-21T08:20:42.293Z,17.20
2018-09-21T08:23:10.793Z,16.90
2018-09-21T08:25:39.776Z,16.40
2018-09-21T08:28:08.245Z,15.80
2018-09-21T08:30:36.812Z,15.30
2018-09-21T08:33:05.711Z,15.10
2018-09-21T08:35:34.325Z,14.80
2018-09-21T08:38:02.830Z,14.50
2018-09-21T08:40:31.444Z,14.30
2018-09-21T08:43:00.159Z,14.10
2018-09-21T08:45:28.712Z,13.80
2018-09-21T08:47:57.174Z,13.80
2018-09-21T08:50:25.677Z,13.80
2018-09-21T08:52:54.167Z,13.70
2018-09-21T08:55:22.638Z,13.70
2018-09-21T08:57:51.078Z,13.60
2018-09-21T09:00:19.549Z,13.50
2018-09-21T09:02:48.082Z,13.50
2018-09-21T09:05:16.551Z,13.50
2018-09-21T09:07:44.981Z,13.60
2018-09-21T09:10:13.493Z,13.70
2018-09-21T09:12:41.918Z,13.70
2018-09-21T09:15:10.334Z,13.80
2018-09-21T09:17:38.819Z,13.80
2018-09-21T09:20:08.576Z,13.90
2018-09-21T09:22:37.092Z,13.70
2018-09-21T09:25:06.683Z,13.60
2018-09-21T09:27:35.421Z,13.70
2018-09-21T09:30:04.965Z,14.00
2018-09-21T09:32:33.358Z,13.90
2018-09-21T09:35:01.836Z,13.80
2018-09-21T09:37:30.273Z,14.00
2018-09-21T09:39:58.699Z,14.00
2018-09-21T09:42:27.202Z,14.00
2018-09-21T09:44:55.648Z,14.20
2018-09-21T09:47:24.337Z,14.20
2018-09-21T09:49:52.797Z,14.30
2018-09-21T09:52:21.336Z,14.30
2018-09-21T09:54:49.788Z,14.30
2018-09-21T09:57:18.294Z,14.40
2018-09-21T09:59:46.716Z,14.40
2018-09-21T10:02:15.166Z,14.60
2018-09-21T10:04:43.582Z,14.70
2018-09-21T10:07:12.170Z,14.90
2018-09-21T10:09:40.748Z,14.90
2018-09-21T10:12:09.179Z,15.10
2018-09-21T10:14:37.627Z,15.40
2018-09-21T10:17:06.079Z,15.50
2018-09-21T10:19:34.500Z,15.50
2018-09-21T10:22:03.029Z,15.50
2018-09-21T10:24:31.500Z,15.60
2018-09-21T10:26:59.985Z,15.80
2018-09-21T10:29:28.400Z,15.70
2018-09-21T10:31:56.966Z,15.70
2018-09-21T10:34:25.454Z,15.80
2018-09-21T10:36:53.891Z,16.00
2018-09-21T10:39:22.568Z,16.10
2018-09-21T10:41:51.040Z,15.70
2018-09-21T10:44:19.494Z,15.60
2018-09-21T10:46:48.833Z,15.90
2018-09-21T10:49:17.315Z,16.30
2018-09-21T10:51:46.074Z,16.80
2018-09-21T10:54:14.544Z,17.10
2018-09-21T10:56:42.979Z,17.40
2018-09-21T10:59:11.572Z,17.50
2018-09-21T11:01:40.044Z,17.40
2018-09-21T11:04:08.498Z,17.30
2018-09-21T11:06:36.990Z,17.50
2018-09-21T11:09:09.428Z,18.00
2018-09-21T11:11:38.463Z,17.70
2018-09-21T11:14:07.890Z,17.90
2018-09-21T11:16:36.396Z,18.00
2018-09-21T11:19:04.966Z,18.40
2018-09-21T11:21:33.465Z,18.10
2018-09-21T11:24:01.950Z,18.50
2018-09-21T11:26:30.429Z,18.20
2018-09-21T11:28:58.930Z,17.90
2018-09-21T11:31:27.427Z,17.60
2018-09-21T11:33:55.885Z,17.40
2018-09-21T11:36:24.346Z,16.60
2018-09-21T11:38:52.824Z,15.90
2018-09-21T11:41:21.291Z,15.40
2018-09-21T11:43:49.764Z,14.90
2018-09-21T11:46:18.225Z,14.60
2018-09-21T11:48:46.861Z,14.70
2018-09-21T11:51:15.337Z,14.90
2018-09-21T11:53:44.556Z,15.30
2018-09-21T11:56:13.046Z,15.40
2018-09-21T11:58:41.509Z,15.50
2018-09-21T12:01:10.277Z,15.60
2018-09-21T12:03:38.735Z,15.60
2018-09-21T12:06:07.536Z,15.80
2018-09-21T12:08:37.670Z,15.90
2018-09-21T12:11:06.390Z,15.90
2018-09-21T12:13:35.333Z,15.90
2018-09-21T12:16:04.188Z,16.00
2018-09-21T12:18:32.720Z,16.00
2018-09-21T12:21:01.192Z,15.90
2018-09-21T12:23:30.132Z,16.00
2018-09-21T12:25:58.676Z,16.20
2018-09-21T12:28:27.641Z,16.20
2018-09-21T12:30:56.231Z,16.20
2018-09-21T12:33:24.736Z,16.20
2018-09-21T12:35:53.319Z,16.10
2018-09-21T12:38:21.786Z,16.00
2018-09-21T12:40:50.257Z,15.90
2018-09-21T12:43:18.737Z,15.90
2018-09-21T12:45:47.208Z,15.90
2018-09-21T12:48:16.147Z,16.10
2018-09-21T12:50:44.752Z,16.40
2018-09-21T12:53:13.211Z,16.50
2018-09-21T12:55:41.699Z,16.60
2018-09-21T12:58:11.512Z,16.50
2018-09-21T13:00:44.890Z,16.50
2018-09-21T13:03:13.401Z,16.50
2018-09-21T13:05:41.916Z,16.40
2018-09-21T13:08:10.350Z,16.50
2018-09-21T13:10:38.819Z,16.60
2018-09-21T13:13:07.471Z,16.50
2018-09-21T13:15:35.967Z,16.60
2018-09-21T13:18:04.451Z,16.80
2018-09-21T13:20:32.892Z,16.80
2018-09-21T13:23:01.350Z,16.40
2018-09-21T13:25:29.858Z,16.20
2018-09-21T13:27:58.377Z,16.10
2018-09-21T13:30:26.920Z,16.00
2018-09-21T13:32:55.483Z,16.00
2018-09-21T13:35:23.944Z,16.10
2018-09-21T13:37:52.379Z,16.10
2018-09-21T13:40:20.974Z,16.00
2018-09-21T13:42:49.442Z,16.10
2018-09-21T13:45:18.707Z,16.20
2018-09-21T13:47:47.166Z,16.40
2018-09-21T13:50:15.648Z,16.50
2018-09-21T13:52:44.115Z,16.90
2018-09-21T13:55:12.619Z,17.20
2018-09-21T13:57:41.807Z,17.50
2018-09-21T14:00:11.923Z,17.40
2018-09-21T14:02:41.070Z,17.30
2018-09-21T14:05:09.590Z,17.50
2018-09-21T14:07:38.621Z,17.60
2018-09-21T14:10:07.720Z,18.00
2018-09-21T14:12:36.211Z,18.20
2018-09-21T14:15:05.403Z,18.60
2018-09-21T14:17:33.898Z,18.60
2018-09-21T14:20:02.629Z,19.10
2018-09-21T14:22:31.097Z,19.20
2018-09-21T14:24:59.555Z,18.30
2018-09-21T14:27:28.192Z,18.60
2018-09-21T14:29:56.649Z,18.60
2018-09-21T14:32:25.107Z,18.50
2018-09-21T14:34:53.561Z,18.90
2018-09-21T14:37:22.034Z,19.00
2018-09-21T14:39:50.526Z,19.20
2018-09-21T14:42:19.033Z,18.20
2018-09-21T14:44:47.508Z,17.50
2018-09-21T14:47:15.958Z,17.40
2018-09-21T14:49:44.442Z,17.70
2018-09-21T14:52:13.260Z,17.70
2018-09-21T14:54:41.752Z,18.00
2018-09-21T14:57:10.586Z,18.40
2018-09-21T14:59:39.133Z,18.80
2018-09-21T15:02:08.123Z,18.20
2018-09-21T15:04:36.776Z,18.40
2018-09-21T15:07:05.510Z,17.70
2018-09-21T15:09:33.988Z,17.60
2018-09-21T15:12:02.490Z,17.40
2018-09-21T15:14:30.927Z,17.40
2018-09-21T15:16:59.378Z,17.10
2018-09-21T15:19:27.834Z,16.90
2018-09-21T15:21:56.313Z,16.60
2018-09-21T15:24:24.774Z,16.50
2018-09-21T15:26:53.239Z,16.30
2018-09-21T15:29:22.142Z,16.30
2018-09-21T15:31:51.316Z,16.20
2018-09-21T15:34:19.806Z,16.20
2018-09-21T15:36:48.270Z,16.20
2018-09-21T15:39:16.705Z,16.20
2018-09-21T15:41:45.185Z,16.00
2018-09-21T15:44:13.657Z,16.00
2018-09-21T15:46:42.305Z,16.00
2018-09-21T15:49:10.807Z,15.90
2018-09-21T15:51:39.289Z,15.70
2018-09-21T15:54:08.169Z,15.70
2018-09-21T15:56:36.663Z,15.70
2018-09-21T15:59:05.331Z,15.80
2018-09-21T16:01:34.208Z,15.80
2018-09-21T16:04:02.752Z,15.70
2018-09-21T16:06:34.165Z,15.60
2018-09-21T16:09:05.234Z,15.70
2018-09-21T16:11:34.185Z,15.70
2018-09-21T16:14:04.345Z,15.60
2018-09-21T16:16:32.851Z,15.70
2018-09-21T16:19:01.665Z,15.70
2018-09-21T16:21:30.128Z,15.70
2018-09-21T16:23:59.470Z,15.70
2018-09-21T16:26:27.926Z,15.80
2018-09-21T16:28:56.465Z,15.90
2018-09-21T16:31:25.026Z,15.90
2018-09-21T16:33:53.580Z,15.90
2018-09-21T16:36:22.233Z,15.80
2018-09-21T16:38:50.723Z,15.80
2018-09-21T16:41:19.287Z,15.70
2018-09-21T16:43:48.381Z,15.50
2018-09-21T16:46:16.870Z,15.40
2018-09-21T16:48:45.354Z,15.30
2018-09-21T16:51:13.886Z,15.20
2018-09-21T16:53:42.326Z,15.20
2018-09-21T16:56:10.875Z,15.10
2018-09-21T16:58:39.379Z,15.10
2018-09-21T17:01:07.829Z,15.10
2018-09-21T17:03:36.330Z,15.10
2018-09-21T17:06:04.795Z,15.10
2018-09-21T17:08:33.297Z,15.00
2018-09-21T17:11:01.978Z,15.00
2018-09-21T17:13:30.636Z,15.00
2018-09-21T17:15:59.182Z,14.90
2018-09-21T17:18:27.663Z,14.90
2018-09-21T17:20:56.219Z,14.80
2018-09-21T17:23:24.662Z,14.70
2018-09-21T17:25:53.582Z,14.60
2018-09-21T17:28:22.874Z,14.60
2018-09-21T17:30:51.426Z,14.50
2018-09-21T17:33:19.946Z,14.40
2018-09-21T17:35:48.454Z,14.40
2018-09-21T17:38:16.967Z,14.40
2018-09-21T17:40:45.446Z,14.30
2018-09-21T17:43:13.910Z,14.20
2018-09-21T17:45:42.400Z,14.20
2018-09-21T17:48:10.883Z,14.20
2018-09-21T17:50:39.366Z,14.10
2018-09-21T17:53:08.294Z,14.10
2018-09-21T17:55:36.753Z,14.10
2018-09-21T17:58:05.215Z,14.10
2018-09-21T18:00:33.666Z,14.10
2018-09-21T18:03:02.231Z,14.20
2018-09-21T18:05:31.634Z,14.20
2018-09-21T18:08:00.249Z,14.10
2018-09-21T18:10:28.925Z,14.10
2018-09-21T18:12:57.408Z,14.10
2018-09-21T18:15:26.361Z,14.10
2018-09-21T18:17:56.423Z,14.00
2018-09-21T18:20:25.051Z,14.00
2018-09-21T18:22:54.692Z,14.00
2018-09-21T18:25:25.495Z,14.00
2018-09-21T18:27:54.083Z,13.90
2018-09-21T18:30:22.697Z,13.90
2018-09-21T18:32:51.235Z,13.90
2018-09-21T18:35:20.677Z,13.80
2018-09-21T18:37:49.256Z,13.80
2018-09-21T18:40:17.851Z,13.80
2018-09-21T18:42:50.210Z,13.80
2018-09-21T18:45:19.487Z,13.80
2018-09-21T18:47:48.139Z,13.80
2018-09-21T18:50:16.755Z,13.80
2018-09-21T18:52:46.972Z,13.70
2018-09-21T18:55:16.088Z,13.70
2018-09-21T18:57:45.427Z,13.60
2018-09-21T19:00:14.535Z,13.60
2018-09-21T19:02:43.030Z,13.60
2018-09-21T19:05:12.190Z,13.70
2018-09-21T19:07:40.817Z,13.70
2018-09-21T19:10:09.281Z,13.60
2018-09-21T19:12:37.855Z,13.50
2018-09-21T19:15:07.274Z,13.60
2018-09-21T19:17:35.864Z,13.50
2018-09-21T19:20:04.683Z,13.60
2018-09-21T19:22:34.090Z,13.60
2018-09-21T19:25:02.582Z,13.50
2018-09-21T19:27:31.120Z,13.50
2018-09-21T19:29:59.632Z,13.50
2018-09-21T19:32:28.884Z,13.50
2018-09-21T19:34:57.345Z,13.50
2018-09-21T19:37:26.123Z,13.50
2018-09-21T19:39:55.065Z,13.40
2018-09-21T19:42:23.757Z,13.40
2018-09-21T19:44:52.331Z,13.30
2018-09-21T19:47:20.878Z,13.30
2018-09-21T19:49:49.348Z,13.30
2018-09-21T19:52:17.873Z,13.30
2018-09-21T19:54:49.431Z,13.30
2018-09-21T19:57:18.501Z,13.30
2018-09-21T19:59:47.180Z,13.30
2018-09-21T20:02:15.685Z,13.20
2018-09-21T20:04:44.170Z,13.20
2018-09-21T20:07:12.636Z,13.20
2018-09-21T20:09:41.115Z,13.20
2018-09-21T20:12:09.552Z,13.20
2018-09-21T20:14:38.003Z,13.20
2018-09-21T20:17:06.914Z,13.10
2018-09-21T20:19:35.346Z,13.20
2018-09-21T20:22:03.878Z,13.20
2018-09-21T20:24:32.327Z,13.20
2018-09-21T20:27:01.523Z,13.20
2018-09-21T20:29:29.986Z,13.10
2018-09-21T20:32:03.842Z,13.10
2018-09-21T20:34:32.313Z,13.10
2018-09-21T20:37:00.902Z,13.10
2018-09-21T20:39:29.507Z,13.10
2018-09-21T20:41:57.973Z,13.10
2018-09-21T20:44:26.467Z,13.10
2018-09-21T20:46:54.946Z,13.10
2018-09-21T20:49:23.454Z,13.10
2018-09-21T20:51:52.014Z,13.10
2018-09-21T20:54:20.435Z,13.10
2018-09-21T20:56:48.887Z,13.00
2018-09-21T20:59:17.428Z,13.00
2018-09-21T21:01:45.854Z,13.00
2018-09-21T21:04:14.320Z,13.00
2018-09-21T21:06:42.809Z,12.90
2018-09-21T21:09:11.677Z,12.90
2018-09-21T21:11:40.182Z,12.80
2018-09-21T21:14:08.643Z,12.80
2018-09-21T21:16:37.131Z,12.70
2018-09-21T21:19:05.946Z,12.70
2018-09-21T21:21:34.454Z,12.60
2018-09-21T21:24:02.983Z,12.60
2018-09-21T21:26:31.435Z,12.60
2018-09-21T21:28:59.897Z,12.50
2018-09-21T21:31:28.346Z,12.40
2018-09-21T21:33:56.798Z,12.50
2018-09-21T21:36:25.817Z,12.50
2018-09-21T21:38:54.311Z,12.50
2018-09-21T21:41:22.890Z,12.50
2018-09-21T21:43:51.394Z,12.50
2018-09-21T21:46:19.848Z,12.50
2018-09-21T21:48:49.224Z,12.60
2018-09-21T21:51:17.712Z,12.60
2018-09-21T21:53:46.719Z,12.60
2018-09-21T21:56:15.209Z,12.60
2018-09-21T21:58:44.357Z,12.60
2018-09-21T22:01:18.201Z,12.50
2018-09-21T22:03:46.661Z,12.50
2018-09-21T22:06:15.192Z,12.50
2018-09-21T22:08:43.646Z,12.50
2018-09-21T22:11:17.542Z,12.60
2018-09-21T22:13:51.373Z,12.60
2018-09-21T22:16:19.830Z,12.60
2018-09-21T22:18:48.307Z,12.50
2018-09-21T22:21:16.781Z,12.50
2018-09-21T22:23:45.282Z,12.50
2018-09-21T22:26:13.755Z,12.50
2018-09-21T22:28:42.371Z,12.50
2018-09-21T22:31:10.800Z,12.40
2018-09-21T22:33:39.238Z,12.50
2018-09-21T22:36:08.475Z,12.40
2018-09-21T22:38:37.559Z,12.50
2018-09-21T22:41:06.215Z,12.60
2018-09-21T22:43:35.453Z,12.60
2018-09-21T22:46:04.536Z,12.50
2018-09-21T22:48:33.125Z,12.40
2018-09-21T22:51:08.203Z,12.50
2018-09-21T22:53:36.863Z,12.50
2018-09-21T22:56:05.430Z,12.50
2018-09-21T22:58:33.913Z,12.40
2018-09-21T23:01:02.430Z,12.50
2018-09-21T23:03:30.893Z,12.40
2018-09-21T23:05:59.457Z,12.40
2018-09-21T23:08:28.635Z,12.50
2018-09-21T23:10:57.138Z,12.40
2018-09-21T23:13:25.597Z,12.40
2018-09-21T23:15:54.121Z,12.40
2018-09-21T23:18:22.614Z,12.30
2018-09-21T23:20:57.477Z,12.30
2018-09-21T23:23:26.213Z,12.30
2018-09-21T23:25:54.714Z,12.30
2018-09-21T23:28:23.224Z,12.20
2018-09-21T23:30:51.730Z,12.20
2018-09-21T23:33:20.194Z,12.20
2018-09-21T23:35:48.684Z,12.20
2018-09-21T23:38:17.196Z,12.20
2018-09-21T23:40:45.670Z,12.10
2018-09-21T23:43:14.338Z,12.10
2018-09-21T23:45:42.839Z,12.10
2018-09-21T23:48:11.397Z,12.10
2018-09-21T23:50:39.924Z,12.00
2018-09-21T23:53:08.401Z,12.00
2018-09-21T23:55:36.881Z,12.00
2018-09-21T23:58:05.364Z,12.00
